Eastham, MA (02642)

3:35 PM EDT on October 31, 2014 (GMT -0400)
Muddy Pond | Change Station
CLOSE
Current Station
Personal Weather Station
Location: Eastham, MA
Elevation: 16 ft
Nearby Weather Stations

Elev 16 ft 41.83 °N, 69.98 °W | Updated 9 seconds ago

Overcast
Overcast
52.7 °F
Feels Like 52.7 °F
N
1.0
Wind Variable Wind from ESE
Gusts 8.0 mph

Today
High -- | Low -- °F
--% Chance of Precip.
Yesterday
High -- | Low -- °F
Precip. -- in
7:10 AM 5:35 PM
First Quarter, 58% visible
Pressure 29.97 in
Visibility 10.0 miles
Clouds Mostly Cloudy 2500 ft
Overcast 6000 ft
Dew Point 38 °F
Humidity 58%
Rainfall 0.00 in
Snow Depth Not available.
UV 1 out of 12
Pollen .10 out of 12
Air Quality Not available.
Flu Activity Not available.
METAR KCQX 311852Z AUTO 06013KT 10SM BKN025 OVC060 11/06 A2997 RMK AO2 SLP149 T01110056

More Conditions Fewer Conditions

Pressure 29.97 in
Visibility 10.0 miles
Clouds Mostly Cloudy 2500 ft
Overcast 6000 ft
Dew Point 38 °F
Humidity 58%
Rainfall 0.00 in
Snow Depth Not available.
UV 1 out of 12
Pollen .10 out of 12
Air Quality Not available.
Flu Activity Not available.
METAR KCQX 311852Z AUTO 06013KT 10SM BKN025 OVC060 11/06 A2997 RMK AO2 SLP149 T01110056

More Conditions Fewer Conditions

10-Day Weather Forecast

Almanac

Astronomy

Oct. 31, 2014 Rise Set
Actual Time
Civil Twilight
Nautical Twilight
Astronomical Twilight
Moon
Length of Visible Light
Length of Day
Tomorrow will be .
, % of the Moon is Illuminated

Today's Extremes

State Highs State Lows

Community

WunderPhotos

Upload Photos

1,766,699 photos uploaded!

WunderBlogs® & News

Nearby

Air Quality

  Air Quality AQ Index Pollutant
Not available.

Snow Depth

Station Depth Elevation

Earthquake Activity

City Distance Mag. Time & Date
Minimum magnitude displayed is 2.5.

Coastal Water Temperatures

Place Temperature

Nearby Weather Stations